Massena, NY (13662)

8:55 AM EDT on October 31, 2014 (GMT -0400)
Wastewater Plant | Change Station
CLOSE
Current Station
Personal Weather Station
Location: Massena, NY
Elevation: 182 ft
Nearby Weather Stations

Elev 182 ft 44.93 °N, 74.87 °W | Updated 25 minutes ago

Partly Cloudy
Partly Cloudy
36.2 °F
Feels Like 36 °F
N
0.0
Wind Variable Wind from NNW
Gusts 11.0 mph

Today
High -- | Low -- °F
--% Chance of Precip.
Yesterday
High -- | Low -- °F
Precip. -- in
7:36 AM 5:49 PM
First Quarter, 55% visible
Pressure 30.09 in
Visibility 10.0 miles
Clouds Few 12000 ft
Windchill 36 °F
Dew Point 31 °F
Humidity 80%
Rainfall 0.00 in
Snow Depth Not available.
UV 0 out of 12
Pollen .10 out of 12
Air Quality Not available.
Flu Activity Not available.
METAR KMSS 311153Z AUTO 00000KT 10SM FEW120 00/M02 A3007 RMK AO2 SLP187 T00001017 10033 21006 53007

More Conditions Fewer Conditions

Pressure 30.09 in
Visibility 10.0 miles
Clouds Few 12000 ft
Windchill 36 °F
Dew Point 31 °F
Humidity 80%
Rainfall 0.00 in
Snow Depth Not available.
UV 0 out of 12
Pollen .10 out of 12
Air Quality Not available.
Flu Activity Not available.
METAR KMSS 311153Z AUTO 00000KT 10SM FEW120 00/M02 A3007 RMK AO2 SLP187 T00001017 10033 21006 53007

More Conditions Fewer Conditions

10-Day Weather Forecast

Almanac

Astronomy

Oct. 31, 2014 Rise Set
Actual Time
Civil Twilight
Nautical Twilight
Astronomical Twilight
Moon
Length of Visible Light
Length of Day
Tomorrow will be .
, % of the Moon is Illuminated

Today's Extremes

State Highs State Lows

Community

WunderPhotos

Upload Photos

1,766,593 photos uploaded!

WunderBlogs® & News

Nearby

Air Quality

  Air Quality AQ Index Pollutant
Not available.

Snow Depth

Station Depth Elevation

Earthquake Activity

City Distance Mag. Time & Date
Minimum magnitude displayed is 2.5.

Coastal Water Temperatures

Place Temperature

Nearby Weather Stations